Chalk, Texas
Current Conditions -  °F | °C
As of 11:53 AM on Saturday 25 Oct 2014 (Local Time) from KCDS Reporting Station
Clear Clear  
Wind Chill: 81°   Ceiling: Unl
Heat Index: 81°   Visibility: 10mi
Dew Point: 55°   Wind: 9mph
Humidity: 41%   Direction: 250°WSW
Pressure: 30.14"   Gusts: NA
Location:  33.87°N, 100.22°W
Report Text: KCDS 251653Z AUTO 25008KT 10SM CLR 27/13 A3014 RMK AO2 SLP185 T02720128
Loading
Personal Weather Stations






























Interactive Weather Map
Tropical Storm Tracking
New forecast layout! Learn more

10-Day Weather Forecast

Advertisements
Track Severe Weather on mobile